Time;durP1;ratioP1;P1;durP2;ratioP2;P2;SDS_P1;SDS_P2;PMS_P1;PMS_P2;Temp;Humidity;BMP_temperature;BMP_pressure;BME280_temperature;BME280_humidity;BME280_pressure;Samples;Min_cycle;Max_cycle;Signal;HPM_P1;HPM_P2
2021/06/03 00:00:24;;;;;;;5.00;3.60;;;;;;;16.84;64.38;99562.66;5012074;28;20117;-60
2021/06/03 00:02:50;;;;;;;6.40;3.75;;;;;;;16.79;63.78;99557.28;5013989;28;20046;-60
2021/06/03 00:05:17;;;;;;;8.45;4.28;;;;;;;16.91;62.98;99567.81;5013481;28;20114;-60
2021/06/03 00:07:43;;;;;;;5.43;3.70;;;;;;;16.79;63.73;99565.41;5013831;28;20033;-60
2021/06/03 00:10:09;;;;;;;7.43;3.90;;;;;;;16.76;63.68;99571.34;5013256;28;20336;-60
2021/06/03 00:12:34;;;;;;;6.07;3.25;;;;;;;16.81;63.28;99563.22;5013788;28;20464;-61
2021/06/03 00:15:00;;;;;;;5.72;3.22;;;;;;;16.80;63.50;99577.84;5013703;28;20187;-60
2021/06/03 00:17:25;;;;;;;6.22;3.60;;;;;;;16.76;65.18;99574.03;5013140;28;20034;-60
2021/06/03 00:19:51;;;;;;;7.07;3.70;;;;;;;16.66;65.25;99582.19;5012131;28;20083;-60
2021/06/03 00:22:16;;;;;;;6.65;4.18;;;;;;;16.52;66.20;99582.72;5013050;28;20443;-60
2021/06/03 00:24:42;;;;;;;6.45;3.55;;;;;;;16.50;66.22;99584.09;5011880;28;20416;-60
2021/06/03 00:27:07;;;;;;;8.23;3.80;;;;;;;16.46;66.91;99583.84;5012620;28;20042;-61
2021/06/03 00:29:33;;;;;;;6.03;3.45;;;;;;;16.52;66.28;99580.03;5013355;28;20026;-60
2021/06/03 00:31:58;;;;;;;8.60;3.90;;;;;;;16.48;66.46;99581.66;5012854;28;20084;-60
2021/06/03 00:34:24;;;;;;;10.50;4.47;;;;;;;16.46;65.99;99583.84;5013266;28;20046;-60
2021/06/03 00:36:49;;;;;;;6.68;3.70;;;;;;;16.43;65.79;99584.38;5012738;28;20038;-60
2021/06/03 00:39:15;;;;;;;8.10;3.60;;;;;;;16.40;66.00;99584.94;5013077;28;20041;-60
2021/06/03 00:41:40;;;;;;;8.05;3.70;;;;;;;16.32;66.64;99582.75;5011469;28;20045;-60
2021/06/03 00:44:05;;;;;;;6.78;3.63;;;;;;;16.35;66.09;99587.66;5013184;28;20022;-61
2021/06/03 00:46:31;;;;;;;5.47;3.63;;;;;;;16.44;65.13;99590.59;5012753;28;20037;-60
2021/06/03 00:48:56;;;;;;;5.43;3.35;;;;;;;16.37;65.68;99591.69;5013144;28;20022;-60
2021/06/03 00:51:24;;;;;;;10.32;3.40;;;;;;;16.36;65.24;99589.25;5012656;28;20113;-60
2021/06/03 00:53:49;;;;;;;6.28;3.50;;;;;;;16.34;65.58;99592.22;5012932;28;20053;-60
2021/06/03 00:56:15;;;;;;;5.78;3.40;;;;;;;16.37;66.07;99601.69;5012617;28;20558;-60
2021/06/03 00:58:40;;;;;;;6.55;3.55;;;;;;;16.34;66.15;99603.03;5012640;28;20046;-60
2021/06/03 01:01:06;;;;;;;6.68;3.90;;;;;;;16.24;66.62;99604.94;5012468;28;20034;-60
2021/06/03 01:03:32;;;;;;;8.40;3.80;;;;;;;15.94;67.80;99604.66;5012827;28;20416;-61
2021/06/03 01:06:00;;;;;;;5.32;3.35;;;;;;;15.99;67.75;99605.75;5012560;28;20088;-60
2021/06/03 01:08:31;;;;;;;7.85;4.18;;;;;;;15.80;68.92;99608.97;5012740;28;20113;-61
2021/06/03 01:11:04;;;;;;;5.93;3.80;;;;;;;15.63;69.98;99609.16;5012643;28;20373;-60
2021/06/03 01:13:35;;;;;;;7.43;4.13;;;;;;;15.86;69.49;99607.09;5012859;28;20021;-60
2021/06/03 01:16:02;;;;;;;6.25;4.22;;;;;;;15.76;69.74;99602.47;5012392;28;20439;-60
2021/06/03 01:18:28;;;;;;;8.35;4.05;;;;;;;15.67;70.65;99599.44;5011410;28;20037;-60
2021/06/03 01:20:54;;;;;;;11.55;4.15;;;;;;;15.61;70.70;99600.50;5010881;28;20038;-60
2021/06/03 01:23:27;;;;;;;8.63;4.82;;;;;;;15.50;70.84;99602.38;4994889;28;20029;-60
2021/06/03 01:25:52;;;;;;;5.28;3.58;;;;;;;15.34;72.08;99608.00;5010863;28;20099;-60
2021/06/03 01:28:18;;;;;;;8.85;4.28;;;;;;;15.28;72.01;99607.16;5012767;28;20061;-60
2021/06/03 01:30:46;;;;;;;6.82;4.07;;;;;;;15.20;72.80;99608.50;5012170;28;20030;-60
2021/06/03 01:33:14;;;;;;;8.10;4.20;;;;;;;15.10;73.21;99608.41;5011276;28;20435;-60
2021/06/03 01:35:42;;;;;;;7.47;4.25;;;;;;;15.04;73.94;99622.97;5012026;28;20034;-60
2021/06/03 01:38:10;;;;;;;10.65;4.38;;;;;;;14.94;74.72;99612.94;5016377;28;20361;-60
2021/06/03 01:40:36;;;;;;;9.85;5.03;;;;;;;15.15;75.07;99621.97;5014706;28;20057;-60
2021/06/03 01:43:01;;;;;;;13.30;5.25;;;;;;;15.06;75.14;99610.03;5016227;28;20482;-60
2021/06/03 01:45:27;;;;;;;9.15;4.57;;;;;;;15.09;75.74;99613.00;5011330;28;20116;-60
2021/06/03 01:47:52;;;;;;;11.20;4.90;;;;;;;15.03;76.06;99622.16;5014843;28;20076;-60
2021/06/03 01:50:18;;;;;;;6.82;4.50;;;;;;;15.06;75.98;99621.63;5014513;28;20021;-60
2021/06/03 01:52:43;;;;;;;8.00;4.68;;;;;;;15.05;76.24;99619.19;5015019;28;20022;-61
2021/06/03 01:55:10;;;;;;;9.88;4.50;;;;;;;15.02;76.30;99620.53;5014453;28;20037;-60
2021/06/03 01:57:36;;;;;;;10.15;5.00;;;;;;;14.99;76.47;99620.25;5016154;28;20132;-60
2021/06/03 02:00:07;;;;;;;7.03;4.78;;;;;;;15.01;76.92;99618.09;5015316;28;20484;-60
2021/06/03 02:02:32;;;;;;;;;;;;;;;14.89;77.36;99624.50;5015399;28;20034;-60
2021/06/03 02:04:57;;;;;;;6.80;4.60;;;;;;;14.87;77.48;99623.94;5015964;28;19917;-60
2021/06/03 02:07:23;;;;;;;12.82;4.82;;;;;;;14.88;77.74;99624.78;5015486;28;20064;-60
2021/06/03 02:09:48;;;;;;;12.10;5.20;;;;;;;14.89;77.47;99621.81;5014623;28;20026;-60
2021/06/03 02:12:14;;;;;;;10.05;5.30;;;;;;;14.95;77.29;99624.53;5015388;28;20042;-60
2021/06/03 02:14:40;;;;;;;10.38;5.60;;;;;;;15.02;76.96;99619.72;5015758;28;20022;-61
2021/06/03 02:17:18;;;;;;;7.93;4.95;;;;;;;14.96;76.88;99615.38;5013887;28;20030;-61
2021/06/03 02:20:02;;;;;;;7.03;4.80;;;;;;;14.85;77.40;99623.41;5015745;28;20030;-60
2021/06/03 02:22:28;;;;;;;10.25;5.15;;;;;;;14.82;76.79;99629.31;5015536;28;20046;-60
2021/06/03 02:24:53;;;;;;;8.43;5.10;;;;;;;14.60;78.18;99620.53;5014477;28;20033;-60
2021/06/03 02:27:19;;;;;;;9.48;5.32;;;;;;;14.57;78.66;99629.16;4997550;28;20041;-61
2021/06/03 02:29:45;;;;;;;8.88;5.35;;;;;;;14.45;79.33;99624.75;5014233;28;20446;-60
2021/06/03 02:32:11;;;;;;;11.02;5.32;;;;;;;14.44;79.79;99631.19;5014934;28;20126;-60
2021/06/03 02:34:37;;;;;;;8.50;5.57;;;;;;;14.61;79.81;99635.66;5015447;28;20026;-60
2021/06/03 02:37:08;;;;;;;13.40;5.78;;;;;;;14.74;79.29;99635.22;4997536;28;20068;-60
2021/06/03 02:39:33;;;;;;;11.10;6.05;;;;;;;14.86;78.87;99633.13;5015279;28;20428;-61
2021/06/03 02:41:58;;;;;;;11.13;5.72;;;;;;;14.86;78.85;99632.31;5014832;28;20045;-60
2021/06/03 02:44:24;;;;;;;9.45;5.90;;;;;;;14.91;78.72;99631.53;5013796;28;20022;-60
2021/06/03 02:46:49;;;;;;;8.73;5.40;;;;;;;14.92;78.67;99635.84;5013210;28;20038;-60
2021/06/03 02:49:15;;;;;;;10.93;5.97;;;;;;;14.92;79.02;99636.66;5015103;28;20046;-60
2021/06/03 02:51:40;;;;;;;7.28;5.10;;;;;;;14.94;78.60;99639.13;5013436;28;20042;-60
2021/06/03 02:54:06;;;;;;;10.60;5.43;;;;;;;14.92;79.07;99641.25;5015010;28;20022;-60
2021/06/03 02:56:31;;;;;;;8.55;4.85;;;;;;;14.87;79.25;99629.34;5014549;28;20037;-61
2021/06/03 02:58:56;;;;;;;8.25;4.97;;;;;;;14.85;79.35;99634.22;5014590;28;20042;-61
2021/06/03 03:01:22;;;;;;;8.05;5.28;;;;;;;14.82;79.16;99631.22;5014629;28;20039;-60
2021/06/03 03:03:47;;;;;;;9.43;5.32;;;;;;;14.83;79.72;99639.06;5014842;28;20388;-60
2021/06/03 03:06:13;;;;;;;9.93;5.80;;;;;;;14.85;80.12;99647.72;5014245;28;20034;-60
2021/06/03 03:08:38;;;;;;;11.45;5.40;;;;;;;14.84;80.09;99640.66;5014704;28;20033;-61
2021/06/03 03:11:04;;;;;;;9.48;5.95;;;;;;;14.93;79.48;99637.50;5014220;28;20053;-60
2021/06/03 03:13:29;;;;;;;9.88;5.75;;;;;;;14.95;80.12;99643.44;5014597;28;20025;-61
2021/06/03 03:15:55;;;;;;;7.88;5.22;;;;;;;14.95;80.13;99648.81;5014259;28;20046;-60
2021/06/03 03:18:20;;;;;;;10.73;5.63;;;;;;;14.93;80.12;99648.28;5014587;28;20146;-60
2021/06/03 03:20:46;;;;;;;12.35;5.93;;;;;;;14.87;79.89;99645.53;5014292;28;20034;-60
2021/06/03 03:23:11;;;;;;;11.00;6.13;;;;;;;14.85;80.21;99650.41;5014471;28;20116;-60
2021/06/03 03:25:38;;;;;;;13.02;5.65;;;;;;;14.76;80.04;99651.97;5014095;28;20030;-60
2021/06/03 03:28:04;;;;;;;8.23;5.28;;;;;;;14.70;79.96;99650.28;5014281;28;20029;-60
2021/06/03 03:30:30;;;;;;;8.48;5.38;;;;;;;14.76;79.23;99654.66;5014135;28;20030;-60
2021/06/03 03:32:55;;;;;;;9.57;5.80;;;;;;;14.78;78.87;99654.41;5014464;28;20072;-60
2021/06/03 03:35:21;;;;;;;9.13;5.47;;;;;;;14.79;79.35;99656.81;5013854;28;20038;-60
2021/06/03 03:37:46;;;;;;;7.88;5.78;;;;;;;14.73;79.63;99654.38;5014361;28;20058;-60
2021/06/03 03:40:15;;;;;;;15.10;5.32;;;;;;;14.76;79.44;99654.66;5013774;28;20441;-60
2021/06/03 03:42:40;;;;;;;10.77;5.50;;;;;;;14.81;79.16;99652.00;5014103;28;20435;-60
2021/06/03 03:45:07;;;;;;;7.05;4.95;;;;;;;15.23;77.36;99656.56;5013650;28;20087;-61
2021/06/03 03:47:33;;;;;;;12.50;5.20;;;;;;;15.07;77.81;99657.53;5014206;28;20021;-60
2021/06/03 03:49:58;;;;;;;8.90;5.28;;;;;;;15.22;76.78;99657.63;5014168;28;20322;-60
2021/06/03 03:52:24;;;;;;;8.40;5.30;;;;;;;16.04;74.05;99667.94;5013156;28;20464;-60
2021/06/03 03:54:49;;;;;;;9.85;4.65;;;;;;;16.96;70.44;99666.06;5011103;28;20029;-60
2021/06/03 03:57:15;;;;;;;10.65;4.30;;;;;;;17.16;69.13;99672.53;5013461;28;20088;-60
2021/06/03 03:59:41;;;;;;;6.55;4.28;;;;;;;17.33;68.50;99678.44;5013129;28;20085;-60
2021/06/03 04:02:06;;;;;;;10.35;5.22;;;;;;;16.69;70.92;99673.66;5013458;28;20488;-60
2021/06/03 04:04:32;;;;;;;9.25;4.32;;;;;;;17.01;69.78;99676.88;5013988;28;20358;-60
2021/06/03 04:06:57;;;;;;;7.82;4.90;;;;;;;18.54;63.81;99685.34;5013379;28;20034;-60
2021/06/03 04:09:23;;;;;;;8.40;4.57;;;;;;;19.36;60.61;99679.16;5013711;28;20033;-60
2021/06/03 04:11:48;;;;;;;6.28;4.38;;;;;;;19.67;59.26;99684.22;5013104;28;20428;-60
2021/06/03 04:14:14;;;;;;;9.98;4.20;;;;;;;19.80;59.00;99689.00;5013776;28;20380;-61
2021/06/03 04:16:39;;;;;;;7.80;4.00;;;;;;;18.60;62.89;99688.88;5013052;28;20049;-60
2021/06/03 04:19:05;;;;;;;6.70;4.30;;;;;;;18.44;63.58;99685.44;5013697;28;20068;-60
2021/06/03 04:21:30;;;;;;;11.52;4.55;;;;;;;19.14;61.99;99685.91;5013121;28;20049;-60
2021/06/03 04:23:56;;;;;;;10.43;4.28;;;;;;;18.35;64.19;99679.03;5013409;28;20033;-60
2021/06/03 04:26:21;;;;;;;8.52;4.30;;;;;;;17.78;66.38;99681.22;5011573;28;20072;-60
2021/06/03 04:28:47;;;;;;;9.63;4.60;;;;;;;17.58;67.07;99679.44;5013584;28;20030;-60
2021/06/03 04:31:12;;;;;;;8.13;4.30;;;;;;;17.95;66.29;99679.00;5013020;28;20483;-60
2021/06/03 04:33:37;;;;;;;8.43;4.45;;;;;;;18.64;63.57;99682.56;5013373;28;20440;-60
2021/06/03 04:36:04;;;;;;;7.15;4.97;;;;;;;18.48;64.19;99687.31;5012842;28;20042;-60
2021/06/03 04:38:29;;;;;;;7.70;4.70;;;;;;;17.79;66.72;99683.66;5013176;28;20026;-60
2021/06/03 04:40:55;;;;;;;7.50;4.70;;;;;;;17.70;67.31;99690.75;5012680;28;20336;-60
2021/06/03 04:43:20;;;;;;;9.57;4.47;;;;;;;17.44;68.30;99700.88;5012112;28;20088;-60
2021/06/03 04:45:47;;;;;;;9.00;4.88;;;;;;;17.47;68.30;99697.59;5012793;28;20406;-60
2021/06/03 04:48:13;;;;;;;8.98;4.68;;;;;;;17.86;67.95;99694.22;5013160;28;20033;-60
2021/06/03 04:50:38;;;;;;;10.60;4.55;;;;;;;17.78;67.46;99701.00;5011355;28;20041;-60
2021/06/03 04:53:04;;;;;;;10.38;4.13;;;;;;;17.83;67.13;99695.59;5013037;28;20037;-60
2021/06/03 04:55:29;;;;;;;10.23;5.25;;;;;;;19.01;62.95;99702.09;5012460;28;20033;-60
2021/06/03 04:57:55;;;;;;;7.32;4.30;;;;;;;20.85;57.02;99705.09;5012989;28;20029;-60
2021/06/03 05:00:26;;;;;;;8.63;3.83;;;;;;;22.00;53.06;99704.25;5012501;28;20060;-60
2021/06/03 05:02:51;;;;;;;6.15;3.83;;;;;;;20.55;57.51;99715.41;5012945;28;20472;-60
2021/06/03 05:05:16;;;;;;;9.30;4.50;;;;;;;20.10;59.58;99719.59;5011305;28;20033;-60
2021/06/03 05:07:42;;;;;;;8.73;4.22;;;;;;;20.56;58.16;99717.00;5012877;28;20033;-60
2021/06/03 05:10:09;;;;;;;7.60;4.63;;;;;;;20.06;59.92;99718.56;5012486;28;20037;-60
2021/06/03 05:12:34;;;;;;;8.85;4.15;;;;;;;20.93;57.26;99730.84;5016309;28;20125;-60
2021/06/03 05:15:00;;;;;;;11.75;3.90;;;;;;;20.21;59.40;99726.50;5017016;28;20124;-61
2021/06/03 05:17:25;;;;;;;7.97;3.95;;;;;;;20.34;59.57;99731.19;5016611;28;20030;-60
2021/06/03 05:19:51;;;;;;;5.72;3.63;;;;;;;20.19;60.49;99723.25;5017075;28;20026;-60
2021/06/03 05:22:16;;;;;;;7.38;4.22;;;;;;;19.78;62.34;99730.06;5016419;28;20481;-60
2021/06/03 05:24:41;;;;;;;8.57;3.95;;;;;;;19.60;63.16;99725.38;5016746;28;20047;-60
2021/06/03 05:27:07;;;;;;;7.80;4.30;;;;;;;19.47;63.16;99728.75;5016129;28;20038;-60
2021/06/03 05:29:32;;;;;;;9.95;4.15;;;;;;;20.61;59.16;99735.19;5016811;28;20030;-60
2021/06/03 05:31:58;;;;;;;10.52;3.70;;;;;;;23.85;49.35;99734.00;5016327;28;20033;-60
2021/06/03 05:34:23;;;;;;;6.30;3.67;;;;;;;26.23;43.17;99743.00;5016485;28;20025;-61
2021/06/03 05:36:49;;;;;;;8.15;3.70;;;;;;;27.52;40.17;99750.34;5016053;28;20053;-60
2021/06/03 05:39:14;;;;;;;8.38;3.45;;;;;;;27.03;40.54;99744.72;5016379;28;20388;-61
2021/06/03 05:41:40;;;;;;;6.07;3.60;;;;;;;24.35;45.85;99740.22;5014849;28;20034;-61
2021/06/03 05:44:06;;;;;;;7.47;3.47;;;;;;;25.64;43.35;99743.84;5016740;28;20041;-61
2021/06/03 05:46:32;;;;;;;7.32;3.95;;;;;;;26.39;42.01;99756.97;5015868;28;20033;-61
2021/06/03 05:48:59;;;;;;;8.77;3.50;;;;;;;24.95;45.50;99747.59;5016427;28;20028;-61
2021/06/03 05:51:25;;;;;;;7.47;3.13;;;;;;;24.33;47.41;99746.78;5015845;28;20406;-60
2021/06/03 05:53:50;;;;;;;5.85;3.50;;;;;;;24.47;46.44;99748.63;5016181;28;20025;-61
2021/06/03 05:56:15;;;;;;;8.10;3.67;;;;;;;23.85;48.65;99758.66;5015718;28;20385;-61
2021/06/03 05:58:41;;;;;;;9.63;3.55;;;;;;;23.31;50.36;99757.13;5015850;28;20049;-60
2021/06/03 06:01:06;;;;;;;8.95;3.92;;;;;;;23.16;50.76;99755.59;5015684;28;20034;-61
2021/06/03 06:08:35;;;;;;;8.93;3.70;;;;;;;23.16;50.12;99766.53;5015986;28;20112;-60
2021/06/03 06:11:00;;;;;;;6.10;3.42;;;;;;;25.18;45.35;99767.41;5015908;28;20096;-60
2021/06/03 06:13:26;;;;;;;8.98;4.10;;;;;;;25.92;43.48;99771.66;5016295;28;20033;-60
2021/06/03 06:15:51;;;;;;;6.40;3.50;;;;;;;27.59;39.17;99780.06;5015644;28;20041;-60
2021/06/03 06:18:16;;;;;;;7.43;3.50;;;;;;;24.95;44.39;99780.50;5015967;28;20026;-60
2021/06/03 06:20:42;;;;;;;6.30;3.45;;;;;;;25.58;45.22;99776.13;5015635;28;20034;-60
2021/06/03 06:23:08;;;;;;;7.65;3.58;;;;;;;23.62;48.63;99779.00;5015242;28;20026;-60
2021/06/03 06:25:33;;;;;;;6.03;3.60;;;;;;;22.91;51.36;99781.63;5014417;28;20049;-60
2021/06/03 06:27:59;;;;;;;6.13;3.45;;;;;;;23.10;51.32;99779.53;5015905;28;20030;-60
2021/06/03 06:30:25;;;;;;;6.85;3.55;;;;;;;21.35;56.33;99778.91;5015393;28;20053;-60
2021/06/03 06:32:51;;;;;;;7.10;3.83;;;;;;;21.96;54.42;99785.09;5015619;28;20022;-60
2021/06/03 06:35:17;;;;;;;10.30;3.95;;;;;;;20.72;58.34;99784.84;5015041;28;20030;-60
2021/06/03 06:37:43;;;;;;;12.80;4.25;;;;;;;20.49;59.63;99781.88;5015351;28;20034;-60
2021/06/03 06:40:08;;;;;;;8.80;4.00;;;;;;;19.89;61.03;99790.56;5013743;28;20025;-60
2021/06/03 06:42:34;;;;;;;6.70;4.35;;;;;;;19.45;61.66;99791.59;5015354;28;20026;-60
2021/06/03 06:45:00;;;;;;;8.07;4.28;;;;;;;19.27;62.82;99789.59;5015440;28;20034;-60
2021/06/03 06:47:25;;;;;;;9.18;4.80;;;;;;;19.25;63.60;99789.09;5014842;28;20031;-59
2021/06/03 06:49:51;;;;;;;9.02;4.20;;;;;;;19.58;63.28;99796.34;5015144;28;20041;-60
2021/06/03 06:52:16;;;;;;;6.35;4.60;;;;;;;19.75;62.52;99795.13;5014661;28;20030;-60
2021/06/03 06:54:45;;;;;;;7.32;4.72;;;;;;;19.86;62.46;99799.31;5015162;28;20022;-60
2021/06/03 06:57:11;;;;;;;7.95;4.45;;;;;;;19.69;63.39;99802.50;5014640;28;20120;-60
2021/06/03 06:59:36;;;;;;;6.63;4.55;;;;;;;20.64;59.96;99805.38;5014866;28;20500;-59
2021/06/03 07:02:02;;;;;;;8.85;4.72;;;;;;;21.35;57.54;99808.09;5014516;28;20092;-60
2021/06/03 07:04:27;;;;;;;6.55;4.30;;;;;;;21.81;55.59;99804.50;5014798;28;20021;-60
2021/06/03 07:06:52;;;;;;;9.10;4.10;;;;;;;22.38;53.91;99813.19;5014303;28;20049;-60
2021/06/03 07:09:18;;;;;;;13.80;3.97;;;;;;;22.75;52.60;99808.53;5015056;28;20025;-60
2021/06/03 07:11:43;;;;;;;6.63;3.85;;;;;;;21.45;55.76;99805.19;5014527;28;20034;-60
2021/06/03 07:14:09;;;;;;;8.15;4.43;;;;;;;21.75;56.10;99812.00;5013530;28;20369;-60
2021/06/03 07:16:34;;;;;;;6.50;4.40;;;;;;;23.41;51.18;99800.59;5012676;28;20096;-60
2021/06/03 07:18:59;;;;;;;8.02;4.22;;;;;;;25.81;45.39;99806.88;5014663;28;20022;-60
2021/06/03 07:21:25;;;;;;;7.35;4.25;;;;;;;26.39;43.53;99807.22;5014078;28;20100;-60
2021/06/03 07:23:50;;;;;;;7.05;3.60;;;;;;;30.59;35.11;99814.25;5014433;28;20432;-60
2021/06/03 07:26:16;;;;;;;5.97;3.60;;;;;;;29.74;35.49;99811.13;5014092;28;20046;-61
2021/06/03 07:28:41;;;;;;;6.18;3.70;;;;;;;29.13;36.74;99810.34;5014399;28;20022;-61
2021/06/03 07:31:08;;;;;;;5.90;3.72;;;;;;;29.85;35.62;99807.47;5012805;28;20059;-61
2021/06/03 07:33:34;;;;;;;7.75;4.10;;;;;;;27.43;40.33;99807.44;5013554;28;20029;-61
2021/06/03 07:35:59;;;;;;;6.97;3.75;;;;;;;26.98;41.64;99810.97;5013520;28;20048;-60
2021/06/03 07:38:25;;;;;;;8.32;4.00;;;;;;;25.00;45.97;99802.25;5014150;28;20030;-60
2021/06/03 07:40:50;;;;;;;10.30;3.90;;;;;;;25.14;46.99;99813.84;5012438;28;20041;-60
2021/06/03 07:43:17;;;;;;;6.93;4.10;;;;;;;24.97;47.78;99805.66;5014152;28;20030;-60
2021/06/03 07:45:42;;;;;;;7.07;3.75;;;;;;;24.56;48.25;99806.94;5013795;28;20034;-60
2021/06/03 07:48:08;;;;;;;8.73;4.18;;;;;;;24.01;49.95;99816.50;5014040;28;20044;-60
2021/06/03 07:50:34;;;;;;;8.75;4.40;;;;;;;23.99;50.54;99820.66;5012302;28;20037;-60
2021/06/03 07:53:01;;;;;;;7.40;4.32;;;;;;;24.18;50.21;99823.16;5014017;28;20423;-60
2021/06/03 07:55:26;;;;;;;10.35;4.75;;;;;;;23.58;52.02;99817.09;5013442;28;20036;-60
2021/06/03 07:57:53;;;;;;;7.35;4.25;;;;;;;24.32;50.50;99827.38;5014040;28;20026;-60
2021/06/03 08:00:19;;;;;;;9.88;4.43;;;;;;;25.10;47.53;99817.56;5013156;28;20052;-60
2021/06/03 08:02:45;;;;;;;8.82;4.22;;;;;;;24.28;49.09;99820.91;5013679;28;20026;-60
2021/06/03 08:05:11;;;;;;;7.88;4.25;;;;;;;25.34;45.40;99828.06;5013307;28;20044;-60
2021/06/03 08:07:37;;;;;;;11.32;4.95;;;;;;;25.31;46.65;99826.75;5010671;28;20025;-60
2021/06/03 08:10:07;;;;;;;6.95;4.03;;;;;;;29.39;37.66;99828.38;5013406;28;20357;-60
2021/06/03 08:12:32;;;;;;;8.25;4.30;;;;;;;30.56;34.68;99824.09;5012427;28;20432;-60
2021/06/03 08:14:58;;;;;;;8.48;4.43;;;;;;;27.39;41.34;99817.53;5012340;28;20060;-60
2021/06/03 08:17:23;;;;;;;8.68;4.03;;;;;;;27.10;42.53;99820.06;5013091;28;20046;-60
2021/06/03 08:19:49;;;;;;;13.02;4.57;;;;;;;25.08;47.23;99823.38;5013445;28;20025;-60
2021/06/03 08:22:14;;;;;;;11.07;4.90;;;;;;;25.12;46.81;99829.03;5012935;28;20046;-60
2021/06/03 08:24:40;;;;;;;8.85;4.45;;;;;;;25.44;46.41;99826.91;5013309;28;20026;-60
2021/06/03 08:27:05;;;;;;;8.95;3.90;;;;;;;26.96;42.92;99821.47;5012922;28;20053;-60
2021/06/03 08:29:31;;;;;;;8.05;4.00;;;;;;;28.32;38.69;99823.31;5013191;28;20022;-60
2021/06/03 08:31:56;;;;;;;7.10;3.83;;;;;;;28.30;39.20;99822.84;5012749;28;20045;-61
2021/06/03 08:34:21;;;;;;;10.95;4.25;;;;;;;28.25;38.84;99831.38;5013123;28;20057;-60
2021/06/03 08:36:47;;;;;;;8.82;4.38;;;;;;;26.35;44.07;99831.00;5012690;28;20053;-60
2021/06/03 08:39:13;;;;;;;6.82;3.80;;;;;;;27.37;42.46;99825.31;5013269;28;20080;-60
2021/06/03 08:41:40;;;;;;;8.27;4.25;;;;;;;28.47;39.77;99822.63;5012790;28;20377;-60
2021/06/03 08:44:06;;;;;;;9.27;4.43;;;;;;;27.61;41.27;99825.38;5013064;28;20076;-60
2021/06/03 08:46:31;;;;;;;7.15;3.65;;;;;;;27.33;42.58;99822.44;5012391;28;20140;-60
2021/06/03 08:48:57;;;;;;;7.68;3.78;;;;;;;27.74;41.43;99824.22;5012993;28;20033;-60
2021/06/03 08:51:22;;;;;;;9.32;4.10;;;;;;;29.00;38.60;99817.81;5010999;28;20053;-60
2021/06/03 08:53:49;;;;;;;9.65;3.97;;;;;;;27.62;40.00;99824.22;5012819;28;20026;-60
2021/06/03 08:56:15;;;;;;;10.18;4.00;;;;;;;26.31;44.46;99824.56;5012246;28;20037;-60
2021/06/03 08:58:44;;;;;;;10.70;3.85;;;;;;;27.53;42.30;99824.34;5012679;28;20111;-60
2021/06/03 09:01:11;;;;;;;11.25;4.40;;;;;;;27.44;42.08;99822.81;5012344;28;20045;-60
2021/06/03 09:03:36;;;;;;;7.38;4.20;;;;;;;26.58;44.19;99833.44;5012838;28;20380;-60
2021/06/03 09:06:02;;;;;;;7.95;4.15;;;;;;;26.12;45.08;99829.69;5012298;28;20049;-60
2021/06/03 09:08:35;;;;;;;10.30;4.03;;;;;;;27.67;42.25;99829.50;5013225;28;20372;-60
2021/06/03 09:11:11;;;;;;;6.90;3.75;;;;;;;27.38;41.48;99824.16;5012559;28;20504;-60
2021/06/03 09:13:38;;;;;;;7.68;3.55;;;;;;;26.79;43.67;99822.47;5012789;28;20109;-60
2021/06/03 09:16:09;;;;;;;8.98;3.50;;;;;;;27.03;43.35;99830.00;5012440;28;20190;-60
2021/06/03 09:18:39;;;;;;;6.95;4.00;;;;;;;29.19;38.39;99827.44;5012740;28;20030;-60
2021/06/03 09:21:08;;;;;;;9.35;3.60;;;;;;;29.70;38.25;99822.06;5012413;28;20390;-60
2021/06/03 09:23:33;;;;;;;8.45;3.65;;;;;;;25.63;46.21;99815.50;5012784;28;20085;-60
2021/06/03 09:26:04;;;;;;;7.57;3.60;;;;;;;28.18;40.52;99823.66;5012163;28;20034;-60
2021/06/03 09:28:37;;;;;;;7.93;3.80;;;;;;;27.79;41.20;99816.91;5012678;28;20033;-60
2021/06/03 09:31:06;;;;;;;8.88;3.70;;;;;;;29.23;38.84;99826.41;5010974;28;20048;-60
2021/06/03 09:33:40;;;;;;;7.32;4.18;;;;;;;27.58;42.06;99819.72;5012748;28;20432;-59
2021/06/03 09:36:07;;;;;;;5.88;3.75;;;;;;;28.15;39.92;99816.91;5011896;28;20042;-59
2021/06/03 09:38:32;;;;;;;5.97;3.83;;;;;;;28.90;38.90;99821.09;5012500;28;20022;-60
2021/06/03 09:40:58;;;;;;;7.20;3.88;;;;;;;29.69;37.56;99803.91;5012190;28;20373;-60
2021/06/03 09:43:24;;;;;;;8.25;3.88;;;;;;;29.47;38.12;99805.31;5011290;28;20022;-59
2021/06/03 09:46:00;;;;;;;6.47;3.45;;;;;;;28.50;39.20;99810.09;5011969;28;20042;-60
2021/06/03 09:48:34;;;;;;;6.47;3.72;;;;;;;25.76;45.19;99806.25;5012563;28;20026;-60
2021/06/03 09:51:30;;;;;;;6.22;4.10;;;;;;;27.44;42.93;99809.06;5012059;28;20049;-60
2021/06/03 09:54:09;;;;;;;6.68;3.88;;;;;;;28.03;40.90;99799.56;5011313;28;20045;-60
2021/06/03 09:56:36;;;;;;;6.82;4.05;;;;;;;28.26;41.59;99805.44;5012090;28;20050;-60
2021/06/03 09:59:04;;;;;;;5.25;3.70;;;;;;;28.39;41.56;99809.75;5015821;28;20057;-60
2021/06/03 10:01:41;;;;;;;11.25;3.88;;;;;;;28.76;40.02;99807.72;5014242;28;20034;-59
2021/06/03 10:04:07;;;;;;;8.77;3.95;;;;;;;28.71;40.01;99804.41;5015949;28;20072;-60
2021/06/03 10:06:33;;;;;;;6.07;3.55;;;;;;;28.70;40.00;99819.34;5015403;28;20532;-60
2021/06/03 10:08:58;;;;;;;11.15;4.15;;;;;;;28.02;40.71;99812.56;5015829;28;20033;-60
2021/06/03 10:11:46;;;;;;;7.00;3.75;;;;;;;27.71;41.99;99816.66;5015614;28;20042;-59
2021/06/03 10:14:19;;;;;;;4.90;3.40;;;;;;;28.92;39.37;99818.78;5013895;28;20133;-59
2021/06/03 10:16:44;;;;;;;6.30;3.40;;;;;;;27.77;40.51;99817.22;5009846;28;20050;-60
2021/06/03 10:19:17;;;;;;;10.88;5.93;;;;;;;29.43;37.25;99819.03;5015669;28;20025;-61
2021/06/03 10:21:42;;;;;;;5.28;3.25;;;;;;;30.01;35.35;99814.94;5001354;28;20562;-61
2021/06/03 10:24:08;;;;;;;10.50;3.80;;;;;;;30.33;35.76;99820.41;4995854;28;20026;-61
2021/06/03 10:26:56;;;;;;;6.70;3.40;;;;;;;29.45;36.32;99813.13;4995579;28;20065;-61
2021/06/03 10:29:21;;;;;;;7.35;3.72;;;;;;;30.61;34.30;99814.72;4996058;28;20034;-60
2021/06/03 10:31:47;;;;;;;8.60;2.92;;;;;;;31.10;33.64;99814.94;5009882;28;20411;-60
2021/06/03 10:34:12;;;;;;;7.93;4.20;;;;;;;30.16;35.73;99825.16;5015390;28;20096;-60
2021/06/03 10:36:38;;;;;;;6.03;3.72;;;;;;;25.73;45.15;99815.94;5000528;28;20511;-60
2021/06/03 10:39:03;;;;;;;6.25;3.55;;;;;;;27.85;40.19;99813.59;4995702;28;20413;-60
2021/06/03 10:41:29;;;;;;;5.68;3.45;;;;;;;27.30;41.30;99804.66;4995179;28;20496;-60
2021/06/03 10:43:54;;;;;;;7.72;3.70;;;;;;;27.48;42.19;99807.22;4978428;28;20033;-60
2021/06/03 10:46:20;;;;;;;4.90;3.30;;;;;;;29.22;37.44;99812.94;4988557;28;20049;-60
2021/06/03 10:48:46;;;;;;;5.72;3.40;;;;;;;29.29;37.45;99807.59;5015225;28;20027;-60
2021/06/03 10:51:11;;;;;;;5.90;3.45;;;;;;;29.12;36.67;99807.94;5005062;28;20110;-60
2021/06/03 10:53:45;;;;;;;7.18;3.60;;;;;;;29.48;36.07;99817.97;4994054;28;20030;-60
2021/06/03 10:56:14;;;;;;;6.97;3.28;;;;;;;29.59;37.08;99807.97;4995054;28;20125;-61
2021/06/03 10:58:40;;;;;;;;;;;;;;;29.59;36.83;99812.72;4995627;28;20046;-61
2021/06/03 11:01:12;;;;;;;7.30;3.40;;;;;;;29.51;37.16;99805.41;5003891;28;20432;-60
2021/06/03 11:03:54;;;;;;;5.60;3.50;;;;;;;27.39;40.55;99809.28;5014913;28;20023;-60
2021/06/03 11:06:26;;;;;;;7.50;3.50;;;;;;;28.69;39.55;99801.19;5003654;28;20046;-60
2021/06/03 11:08:54;;;;;;;7.32;3.50;;;;;;;28.33;37.84;99795.41;4993924;28;20128;-60
2021/06/03 11:11:20;;;;;;;9.35;3.65;;;;;;;27.94;39.27;99799.72;4994886;28;20069;-60
2021/06/03 11:13:45;;;;;;;7.15;3.45;;;;;;;28.15;38.82;99800.38;4995028;28;20057;-60
2021/06/03 11:16:11;;;;;;;8.90;3.15;;;;;;;28.20;37.37;99798.53;5004071;28;20057;-60
2021/06/03 11:18:52;;;;;;;6.25;3.30;;;;;;;28.10;37.66;99800.59;5014414;28;20157;-60
2021/06/03 11:21:37;;;;;;;7.93;3.38;;;;;;;27.81;37.91;99801.63;5003968;28;20166;-60
2021/06/03 11:24:14;;;;;;;6.95;3.25;;;;;;;28.34;38.69;99798.97;4995024;28;20030;-61
2021/06/03 11:29:08;;;;;;;7.43;3.13;;;;;;;28.02;36.94;99797.97;4994852;28;20058;-61
2021/06/03 11:31:34;;;;;;;5.95;2.65;;;;;;;28.05;37.11;99798.09;5007012;28;20045;-61
2021/06/03 11:34:05;;;;;;;4.97;3.33;;;;;;;27.46;39.80;99802.06;5014272;28;20383;-60
2021/06/03 11:36:31;;;;;;;6.63;3.50;;;;;;;27.06;41.33;99799.09;5001463;28;20050;-60